Time;durP1;ratioP1;P1;durP2;ratioP2;P2;SDS_P1;SDS_P2;PMS_P1;PMS_P2;Temp;Humidity;BMP_temperature;BMP_pressure;BME280_temperature;BME280_humidity;BME280_pressure;Samples;Min_cycle;Max_cycle;Signal;HPM_P1;HPM_P2
2021/11/25 00:00:50;;;;;;;21.20;12.13;;;;;;;4.33;67.12;100435.71;1735838;81;20985;-78
2021/11/25 00:03:16;;;;;;;17.65;11.93;;;;;;;4.33;67.08;100435.71;1722164;81;21039;-80
2021/11/25 00:05:43;;;;;;;20.92;13.72;;;;;;;4.33;67.06;100434.89;1722523;81;21018;-81
2021/11/25 00:08:10;;;;;;;19.23;14.33;;;;;;;4.33;67.06;100434.89;1761517;81;20998;-82
2021/11/25 00:10:40;;;;;;;21.02;13.68;;;;;;;4.32;67.21;100436.72;1709804;82;20936;-81
2021/11/25 00:13:06;;;;;;;19.57;12.95;;;;;;;4.33;67.24;100433.55;1686028;84;20938;-81
2021/11/25 00:15:33;;;;;;;22.22;14.40;;;;;;;4.34;67.22;100434.70;1711348;82;21502;-78
2021/11/25 00:17:59;;;;;;;20.85;14.45;;;;;;;4.35;67.28;100443.52;1729951;80;25016;-81
2021/11/25 00:20:26;;;;;;;22.70;14.43;;;;;;;4.35;67.31;100442.19;1654055;85;21341;-81
2021/11/25 00:22:53;;;;;;;20.68;13.90;;;;;;;4.36;67.33;100435.86;1705772;82;21553;-79
2021/11/25 00:25:19;;;;;;;19.17;14.45;;;;;;;4.36;67.33;100435.86;1733530;81;21038;-74
2021/11/25 00:27:45;;;;;;;20.15;13.03;;;;;;;4.34;67.41;100433.37;1759329;81;20990;-75
2021/11/25 00:30:14;;;;;;;27.00;15.08;;;;;;;4.37;67.44;100434.31;1752141;81;21107;-74
2021/11/25 00:32:41;;;;;;;22.67;12.93;;;;;;;4.38;67.34;100435.14;1654200;85;21010;-73
2021/11/25 00:35:09;;;;;;;20.43;13.80;;;;;;;4.36;67.38;100434.52;1680015;85;21524;-71
2021/11/25 00:37:37;;;;;;;27.42;14.78;;;;;;;4.36;67.41;100430.00;1688350;84;20998;-72
2021/11/25 00:40:11;;;;;;;19.15;13.03;;;;;;;4.36;67.42;100426.00;1676866;85;20999;-74
2021/11/25 00:42:39;;;;;;;22.35;14.10;;;;;;;4.37;67.45;100432.98;1711478;84;21531;-72
2021/11/25 00:45:07;;;;;;;24.57;14.15;;;;;;;4.38;67.40;100433.30;1709483;84;21021;-80
2021/11/25 00:47:33;;;;;;;21.27;14.25;;;;;;;4.38;67.47;100426.64;1687481;82;21074;-77
2021/11/25 00:50:00;;;;;;;23.92;14.58;;;;;;;4.38;67.47;100422.65;1713652;82;21109;-78
2021/11/25 00:52:27;;;;;;;22.25;12.10;;;;;;;4.39;67.47;100418.98;1710848;82;21125;-77
2021/11/25 00:54:54;;;;;;;26.40;16.30;;;;;;;4.38;67.43;100428.48;1710799;82;21184;-83
2021/11/25 00:57:21;;;;;;;22.55;13.35;;;;;;;4.36;67.48;100425.20;1701709;81;21037;-76
2021/11/25 00:59:48;;;;;;;20.10;13.50;;;;;;;4.36;67.59;100425.20;1759475;81;20938;-77
2021/11/25 01:02:15;;;;;;;20.75;14.45;;;;;;;4.36;67.62;100423.87;1757387;81;20993;-75
2021/11/25 01:04:41;;;;;;;24.98;13.80;;;;;;;4.35;67.67;100424.38;1729542;81;21081;-76
2021/11/25 01:07:08;;;;;;;27.00;15.25;;;;;;;4.35;67.79;100417.72;1753130;81;21333;-77
2021/11/25 01:09:34;;;;;;;20.85;15.08;;;;;;;4.35;67.79;100417.72;1689048;82;21582;-79
2021/11/25 01:12:01;;;;;;;23.87;15.32;;;;;;;4.36;67.81;100413.22;1714713;81;21094;-75
2021/11/25 01:14:30;;;;;;;20.57;13.55;;;;;;;4.37;67.85;100418.33;1733375;81;21034;-77
2021/11/25 01:16:58;;;;;;;25.27;16.25;;;;;;;4.38;67.84;100413.83;1717142;81;21563;-77
2021/11/25 01:19:25;;;;;;;25.75;15.50;;;;;;;4.36;67.87;100416.68;1713835;82;21735;-77
2021/11/25 01:21:51;;;;;;;17.48;14.18;;;;;;;4.34;67.94;100417.40;1740742;81;21066;-76
2021/11/25 01:24:18;;;;;;;22.02;14.90;;;;;;;4.31;68.01;100411.13;1720046;81;21049;-75
2021/11/25 01:26:44;;;;;;;25.08;15.05;;;;;;;4.28;68.09;100415.48;1723151;81;20923;-75
2021/11/25 01:29:11;;;;;;;28.83;15.70;;;;;;;4.28;68.16;100412.83;1713281;82;21058;-75
2021/11/25 01:31:39;;;;;;;23.42;15.13;;;;;;;4.26;68.23;100412.21;1738682;81;21976;-76
2021/11/25 01:34:06;;;;;;;20.40;13.00;;;;;;;4.26;68.33;100399.41;1738328;82;21064;-76
2021/11/25 01:36:33;;;;;;;22.93;14.60;;;;;;;4.26;68.33;100399.41;1739168;81;21038;-78
2021/11/25 01:38:59;;;;;;;22.52;15.78;;;;;;;4.25;68.40;100403.08;1737935;81;21034;-75
2021/11/25 01:41:26;;;;;;;19.85;13.48;;;;;;;4.26;68.47;100404.73;1742790;82;21064;-76
2021/11/25 01:43:53;;;;;;;23.35;14.73;;;;;;;4.26;68.55;100408.73;1724961;82;21251;-74
2021/11/25 01:46:21;;;;;;;18.35;14.15;;;;;;;4.26;68.62;100404.73;1744005;82;20961;-75
2021/11/25 01:48:48;;;;;;;19.98;15.03;;;;;;;4.24;68.82;100415.56;1725217;82;20988;-75
2021/11/25 01:51:17;;;;;;;22.35;15.48;;;;;;;4.24;68.82;100415.56;1744504;81;20969;-75
2021/11/25 01:53:44;;;;;;;22.73;14.93;;;;;;;4.25;68.78;100413.72;1725271;82;21038;-77
2021/11/25 01:56:10;;;;;;;21.20;14.90;;;;;;;4.22;68.89;100411.45;1745567;81;21163;-76
2021/11/25 01:58:37;;;;;;;25.65;15.35;;;;;;;4.19;68.90;100411.31;1748580;81;21001;-75
2021/11/25 02:01:08;;;;;;;22.93;15.10;;;;;;;4.17;69.23;100404.55;1724988;82;21525;-75
2021/11/25 02:03:34;;;;;;;18.62;13.83;;;;;;;4.14;69.27;100401.74;1745128;82;21518;-76
2021/11/25 02:06:00;;;;;;;21.05;14.83;;;;;;;4.14;69.27;100401.74;1746026;81;21502;-75
2021/11/25 02:08:27;;;;;;;19.05;15.13;;;;;;;4.12;69.49;100406.45;1747905;81;21039;-77
2021/11/25 02:10:56;;;;;;;21.62;14.65;;;;;;;4.13;69.42;100409.41;1747824;81;21004;-76
2021/11/25 02:13:22;;;;;;;17.85;14.03;;;;;;;4.15;69.44;100406.56;1747843;81;21000;-76
2021/11/25 02:15:49;;;;;;;24.70;14.20;;;;;;;4.15;69.44;100406.56;1726135;82;21028;-75
2021/11/25 02:18:18;;;;;;;18.07;13.55;;;;;;;4.13;69.51;100396.59;1725391;82;21553;-77
2021/11/25 02:20:48;;;;;;;23.15;15.20;;;;;;;4.09;69.50;100400.66;1662420;85;21152;-75
2021/11/25 02:23:15;;;;;;;17.85;14.00;;;;;;;4.08;69.62;100406.48;1715508;83;21035;-75
2021/11/25 02:25:42;;;;;;;19.77;15.15;;;;;;;4.06;69.65;100406.37;1723821;82;20929;-74
2021/11/25 02:28:08;;;;;;;17.92;13.15;;;;;;;4.05;69.71;100404.72;1734054;81;21549;-75
2021/11/25 02:30:35;;;;;;;19.67;14.30;;;;;;;4.04;69.82;100399.08;1715313;83;21104;-76
2021/11/25 02:33:01;;;;;;;24.10;14.10;;;;;;;4.06;69.86;100403.21;1679218;85;21119;-76
2021/11/25 02:35:31;;;;;;;18.48;15.30;;;;;;;4.01;69.93;100410.11;1744307;82;20972;-75
2021/11/25 02:37:58;;;;;;;20.17;15.15;;;;;;;4.00;70.04;100397.81;1748624;81;20965;-76
2021/11/25 02:40:45;;;;;;;18.92;14.43;;;;;;;3.95;70.23;100399.21;1729595;81;21057;-78
2021/11/25 02:43:18;;;;;;;16.73;12.88;;;;;;;3.95;70.23;100399.21;1755796;81;21048;-74
2021/11/25 02:45:59;;;;;;;;;;;;;;;3.93;70.46;100397.23;1739837;81;21079;-75
2021/11/25 02:48:31;;;;;;;16.17;12.95;;;;;;;3.93;70.56;100405.22;1735507;81;20166;-75
2021/11/25 02:51:00;;;;;;;21.15;15.38;;;;;;;3.95;70.62;100402.38;1735642;81;21097;-76
2021/11/25 02:53:32;;;;;;;19.80;15.18;;;;;;;3.94;70.73;100398.88;1733718;81;21034;-76
2021/11/25 02:56:01;;;;;;;17.35;14.87;;;;;;;3.94;70.73;100398.88;1706915;84;21023;-77
2021/11/25 02:58:28;;;;;;;19.48;15.32;;;;;;;3.95;70.80;100401.05;1679732;82;21777;-82
2021/11/25 03:01:00;;;;;;;21.85;17.20;;;;;;;3.95;70.80;100401.05;1715643;82;20977;-87
2021/11/25 03:03:26;;;;;;;18.35;15.23;;;;;;;3.95;70.87;100405.03;1738595;82;20929;-80
2021/11/25 03:05:53;;;;;;;25.40;17.05;;;;;;;3.93;70.95;100397.23;1717319;82;21471;-81
2021/11/25 03:08:21;;;;;;;21.17;15.45;;;;;;;3.92;71.03;100395.61;1651805;85;21002;-80
2021/11/25 03:10:55;;;;;;;20.57;15.00;;;;;;;3.92;71.08;100398.27;1629774;85;21068;-78
2021/11/25 03:13:22;;;;;;;19.87;14.53;;;;;;;3.93;71.11;100394.57;1753558;81;21058;-80
2021/11/25 03:15:50;;;;;;;17.32;14.18;;;;;;;3.95;71.18;100393.89;1716311;82;20958;-79
2021/11/25 03:18:16;;;;;;;19.42;14.87;;;;;;;3.97;71.16;100392.88;1713586;82;21026;-77
2021/11/25 03:20:46;;;;;;;21.37;14.35;;;;;;;3.99;71.18;100390.33;1713519;82;21519;-79
2021/11/25 03:23:14;;;;;;;22.93;15.68;;;;;;;3.97;71.19;100385.72;1712632;82;21369;-82
2021/11/25 03:25:41;;;;;;;25.70;17.52;;;;;;;3.96;71.28;100397.38;1713783;82;21527;-78
2021/11/25 03:28:08;;;;;;;18.23;14.13;;;;;;;3.97;71.36;100387.55;1713541;82;21499;-78
2021/11/25 03:30:35;;;;;;;19.65;16.45;;;;;;;3.96;71.37;100393.38;1738701;82;21022;-78
2021/11/25 03:33:05;;;;;;;20.80;16.25;;;;;;;3.95;71.44;100381.91;1739374;82;20978;-78
2021/11/25 03:35:33;;;;;;;20.77;15.18;;;;;;;3.91;71.51;100376.66;1716802;81;21888;-79
2021/11/25 03:37:59;;;;;;;19.48;15.98;;;;;;;3.92;71.59;100379.64;1740237;81;21614;-80
2021/11/25 03:40:26;;;;;;;21.02;16.27;;;;;;;3.91;71.71;100382.48;1713332;82;21014;-79
2021/11/25 03:42:53;;;;;;;24.43;16.62;;;;;;;3.91;71.79;100379.31;1731177;81;20954;-77
2021/11/25 03:45:20;;;;;;;22.10;15.93;;;;;;;3.91;71.79;100379.31;1716894;81;21053;-80
2021/11/25 03:47:47;;;;;;;19.87;16.07;;;;;;;3.94;72.08;100382.09;1735941;81;21511;-80
2021/11/25 03:50:14;;;;;;;23.87;16.25;;;;;;;3.94;72.08;100382.09;1739909;81;21023;-83
2021/11/25 03:52:41;;;;;;;22.50;17.17;;;;;;;3.93;72.06;100376.48;1739319;82;20927;-83
2021/11/25 03:55:09;;;;;;;25.65;17.37;;;;;;;3.93;72.06;100376.48;1714346;81;21543;-82
2021/11/25 03:57:36;;;;;;;22.75;16.55;;;;;;;3.98;72.19;100378.03;1736523;81;21513;-81
2021/11/25 04:00:08;;;;;;;21.37;16.85;;;;;;;3.98;72.19;100378.03;1759538;81;21094;-81
2021/11/25 04:02:37;;;;;;;21.77;18.42;;;;;;;4.02;72.22;100381.98;1736303;81;21014;-80
2021/11/25 04:05:05;;;;;;;25.35;18.98;;;;;;;4.10;72.20;100371.70;1726528;82;20958;-82
2021/11/25 04:07:32;;;;;;;23.27;16.62;;;;;;;4.10;72.20;100371.70;1758375;81;21046;-79
2021/11/25 04:09:59;;;;;;;20.27;16.90;;;;;;;4.14;72.07;100375.63;1757568;81;21050;-80
2021/11/25 04:12:25;;;;;;;21.73;16.12;;;;;;;4.16;71.96;100375.77;1713506;82;21151;-82
2021/11/25 04:14:52;;;;;;;21.95;17.05;;;;;;;4.16;71.92;100370.95;1713507;82;20938;-82
2021/11/25 04:17:21;;;;;;;25.00;19.10;;;;;;;4.14;71.86;100368.47;1738412;81;20995;-80
2021/11/25 04:19:51;;;;;;;23.02;16.97;;;;;;;4.14;71.92;100371.12;1737037;82;21058;-82
2021/11/25 04:22:21;;;;;;;21.70;17.45;;;;;;;4.12;71.98;100371.84;1737143;82;21015;-78
2021/11/25 04:24:49;;;;;;;20.43;16.60;;;;;;;4.08;71.92;100373.22;1736926;82;21579;-78
2021/11/25 04:27:15;;;;;;;26.12;17.73;;;;;;;4.03;72.36;100364.98;1737893;81;21113;-79
2021/11/25 04:29:46;;;;;;;22.15;17.07;;;;;;;4.00;72.62;100357.89;1738822;82;21041;-84
2021/11/25 04:37:44;;;;;;;24.77;16.85;;;;;;;3.95;72.85;100365.95;1733867;81;21169;-78
2021/11/25 04:40:14;;;;;;;25.37;19.32;;;;;;;3.92;72.94;100369.50;1759626;81;20991;-85
2021/11/25 04:42:41;;;;;;;21.27;15.78;;;;;;;3.92;73.06;100374.82;1733516;81;21408;-83
2021/11/25 04:45:09;;;;;;;27.98;19.62;;;;;;;3.89;73.18;100367.20;1733332;81;20899;-84
2021/11/25 04:47:37;;;;;;;25.15;18.82;;;;;;;3.86;73.35;100371.08;1692340;82;21058;-83
2021/11/25 04:50:05;;;;;;;25.80;17.40;;;;;;;3.87;73.44;100366.59;1718430;81;21025;-78
2021/11/25 04:52:34;;;;;;;25.65;18.52;;;;;;;3.88;73.52;100376.22;1736324;82;21562;-84
2021/11/25 04:55:01;;;;;;;27.98;17.70;;;;;;;3.90;73.56;100378.17;1736693;82;20921;-83
2021/11/25 04:57:29;;;;;;;32.03;18.20;;;;;;;3.95;73.58;100371.27;1753295;81;20995;-85
2021/11/25 04:59:56;;;;;;;27.82;19.35;;;;;;;4.00;73.52;100368.53;1733563;81;20883;-84
2021/11/25 05:02:24;;;;;;;22.40;17.57;;;;;;;4.04;73.52;100367.14;1733548;81;21818;-83
2021/11/25 05:04:50;;;;;;;29.57;19.12;;;;;;;4.09;73.38;100368.72;1733263;81;20998;-85
2021/11/25 05:07:18;;;;;;;25.20;19.30;;;;;;;4.11;73.28;100360.88;1724850;81;21021;-84
2021/11/25 05:09:45;;;;;;;23.60;18.42;;;;;;;4.10;73.17;100355.73;1734043;81;21054;-84
2021/11/25 05:12:12;;;;;;;22.58;15.98;;;;;;;4.10;73.17;100355.73;1710920;81;21113;-83
2021/11/25 05:14:39;;;;;;;22.30;16.65;;;;;;;4.09;73.23;100355.41;1707347;84;21090;-83
2021/11/25 05:17:06;;;;;;;25.72;18.37;;;;;;;4.07;73.29;100354.80;1716781;81;21012;-82
2021/11/25 05:19:33;;;;;;;26.95;19.85;;;;;;;4.04;73.41;100352.50;1733524;82;21062;-82
2021/11/25 05:22:00;;;;;;;27.70;18.20;;;;;;;4.03;73.50;100354.33;1733201;82;21002;-84
2021/11/25 05:24:27;;;;;;;27.13;17.37;;;;;;;4.04;73.51;100349.84;1711203;82;21011;-84
2021/11/25 05:26:56;;;;;;;22.90;16.55;;;;;;;4.03;73.54;100352.20;1722482;81;21081;-83
2021/11/25 05:29:23;;;;;;;25.95;17.10;;;;;;;4.02;73.58;100350.55;1755983;81;21117;-81
2021/11/25 05:31:50;;;;;;;24.23;17.50;;;;;;;4.01;73.61;100347.06;1736715;81;21002;-83
2021/11/25 05:34:17;;;;;;;23.05;16.73;;;;;;;4.01;73.67;100350.23;1680649;85;21538;-77
2021/11/25 05:36:45;;;;;;;27.05;16.67;;;;;;;4.01;73.74;100349.73;1662325;84;21112;-76
2021/11/25 05:39:12;;;;;;;25.02;18.07;;;;;;;4.01;73.79;100357.71;1699949;84;21825;-80
2021/11/25 05:41:39;;;;;;;18.55;13.68;;;;;;;4.05;73.90;100351.49;1747397;81;21010;-78
2021/11/25 05:44:08;;;;;;;24.80;17.65;;;;;;;4.07;73.78;100354.30;1735800;82;20992;-79
2021/11/25 05:46:35;;;;;;;23.42;16.85;;;;;;;4.09;73.81;100354.91;1711064;82;21002;-77
2021/11/25 05:49:02;;;;;;;24.77;17.00;;;;;;;4.15;73.84;100357.31;1704519;83;21031;-79
2021/11/25 05:51:29;;;;;;;29.02;16.65;;;;;;;4.22;73.71;100358.21;1703199;83;21812;-78
2021/11/25 05:53:56;;;;;;;22.10;15.95;;;;;;;4.22;73.59;100349.69;1694430;84;20983;-78
2021/11/25 05:56:23;;;;;;;26.70;18.50;;;;;;;4.25;73.45;100353.82;1701866;82;20971;-80
2021/11/25 05:58:50;;;;;;;21.87;16.57;;;;;;;4.19;73.45;100354.58;1696338;83;21051;-78
2021/11/25 06:01:17;;;;;;;22.37;18.00;;;;;;;4.08;73.79;100357.75;1704590;82;20996;-77
2021/11/25 06:03:46;;;;;;;23.47;19.00;;;;;;;4.05;73.87;100360.80;1714517;82;22202;-84
2021/11/25 06:06:13;;;;;;;21.25;15.83;;;;;;;4.05;73.92;100355.48;1714901;82;21012;-82
2021/11/25 06:08:42;;;;;;;24.30;18.27;;;;;;;4.06;74.07;100357.14;1732138;82;21038;-83
2021/11/25 06:11:09;;;;;;;22.85;16.50;;;;;;;3.96;74.42;100349.48;1717126;82;21599;-80
2021/11/25 06:13:36;;;;;;;21.62;17.45;;;;;;;3.97;74.62;100356.45;1716952;82;21035;-79
2021/11/25 06:16:05;;;;;;;27.02;19.95;;;;;;;3.97;74.62;100356.45;1714979;82;21721;-80
2021/11/25 06:18:33;;;;;;;24.35;18.82;;;;;;;4.03;74.60;100356.20;1711111;82;21018;-84
2021/11/25 06:21:00;;;;;;;25.85;18.42;;;;;;;4.09;74.64;100360.23;1736379;82;20966;-82
2021/11/25 06:23:27;;;;;;;26.90;20.92;;;;;;;4.13;74.48;100355.34;1717172;82;21086;-81
2021/11/25 06:25:55;;;;;;;23.38;17.70;;;;;;;4.13;74.48;100355.34;1717385;82;20984;-78
2021/11/25 06:28:22;;;;;;;24.40;17.25;;;;;;;4.16;74.37;100358.97;1697221;82;21205;-78
2021/11/25 06:30:49;;;;;;;23.10;18.70;;;;;;;4.16;74.37;100357.64;1706456;82;20956;-78
2021/11/25 06:33:16;;;;;;;23.85;19.50;;;;;;;4.12;74.35;100366.52;1702978;83;20994;-79
2021/11/25 06:35:44;;;;;;;25.20;18.55;;;;;;;4.10;74.47;100371.20;1709300;82;21027;-76
2021/11/25 06:38:11;;;;;;;25.68;17.45;;;;;;;4.09;74.55;100364.73;1733596;82;21492;-75
2021/11/25 06:40:38;;;;;;;23.73;16.07;;;;;;;4.08;74.62;100360.41;1658736;83;21041;-81
2021/11/25 06:43:07;;;;;;;24.70;17.87;;;;;;;4.01;74.90;100364.36;1731291;81;21002;-84
2021/11/25 06:45:35;;;;;;;23.83;16.30;;;;;;;4.01;74.90;100364.36;1748317;81;20930;-82
2021/11/25 06:48:03;;;;;;;29.57;17.35;;;;;;;4.01;74.94;100359.55;1718009;81;21093;-83
2021/11/25 06:50:31;;;;;;;27.50;18.45;;;;;;;4.01;75.02;100360.38;1749387;81;21515;-79
2021/11/25 06:52:59;;;;;;;28.12;18.12;;;;;;;4.02;75.08;100366.02;1732928;81;21295;-77
2021/11/25 06:55:26;;;;;;;22.98;16.65;;;;;;;4.08;75.08;100351.92;1727503;82;21508;-77
2021/11/25 06:57:54;;;;;;;25.20;17.67;;;;;;;4.17;74.74;100357.42;1736787;82;21535;-78
2021/11/25 07:00:25;;;;;;;22.77;16.85;;;;;;;4.17;74.74;100357.42;1740692;81;20938;-80
2021/11/25 07:02:53;;;;;;;21.20;17.05;;;;;;;4.18;74.65;100361.73;1733545;81;21034;-76
2021/11/25 07:05:22;;;;;;;20.55;17.82;;;;;;;4.11;74.78;100357.39;1753251;81;21098;-77
2021/11/25 07:07:51;;;;;;;23.07;17.73;;;;;;;4.11;74.78;100357.39;1713738;82;21074;-77
2021/11/25 07:10:19;;;;;;;23.32;17.98;;;;;;;4.07;74.80;100356.95;1739187;81;21086;-80
2021/11/25 07:12:46;;;;;;;24.30;18.35;;;;;;;4.10;74.90;100358.40;1754841;81;21046;-78
2021/11/25 07:15:15;;;;;;;26.07;19.40;;;;;;;4.13;74.81;100363.33;1731937;81;21002;-79
2021/11/25 07:17:46;;;;;;;32.17;19.90;;;;;;;4.13;74.81;100363.33;1736541;82;20963;-78
2021/11/25 07:20:14;;;;;;;28.02;19.15;;;;;;;4.15;74.87;100367.46;1714248;82;21002;-81
2021/11/25 07:22:41;;;;;;;28.47;19.55;;;;;;;4.20;74.84;100369.55;1713479;82;21531;-83
2021/11/25 07:25:10;;;;;;;31.35;21.23;;;;;;;4.28;74.77;100377.39;1737088;81;21011;-79
2021/11/25 07:27:37;;;;;;;25.35;17.42;;;;;;;4.28;74.77;100377.39;1733381;81;21089;-80
2021/11/25 07:30:07;;;;;;;31.45;18.85;;;;;;;4.31;74.53;100366.37;1720750;81;21283;-77
2021/11/25 07:32:34;;;;;;;24.00;17.87;;;;;;;4.30;74.51;100368.20;1738107;81;21040;-76
2021/11/25 07:35:02;;;;;;;26.65;19.60;;;;;;;4.34;74.57;100378.78;1736684;82;21033;-77
2021/11/25 07:37:30;;;;;;;25.92;18.40;;;;;;;4.35;74.35;100375.11;1753956;81;21026;-81
2021/11/25 07:39:57;;;;;;;25.60;18.77;;;;;;;4.39;74.19;100368.88;1733333;81;21057;-80
2021/11/25 07:42:25;;;;;;;25.27;18.98;;;;;;;4.36;74.21;100372.74;1726561;81;21046;-79
2021/11/25 07:44:52;;;;;;;22.22;17.05;;;;;;;4.37;74.24;100373.56;1718872;82;20949;-80
2021/11/25 07:47:31;;;;;;;26.62;18.67;;;;;;;4.35;74.18;100369.78;1738216;82;21030;-80
2021/11/25 07:49:50;;;;;;;26.33;20.37;;;;;;;4.33;74.24;100369.65;1735550;82;21049;-78
2021/11/25 07:52:17;;;;;;;29.35;21.95;;;;;;;4.32;74.29;100369.33;1721241;82;21034;-81
2021/11/25 07:54:43;;;;;;;27.13;20.08;;;;;;;4.23;74.49;100371.31;1721657;82;21127;-78
2021/11/25 07:57:11;;;;;;;25.97;20.30;;;;;;;4.21;74.61;100360.55;1736273;82;20943;-79
2021/11/25 07:59:38;;;;;;;25.37;21.12;;;;;;;4.25;74.71;100365.30;1716805;82;21089;-80
2021/11/25 08:02:07;;;;;;;26.07;20.88;;;;;;;4.32;74.68;100362.16;1733541;82;21523;-81
2021/11/25 08:04:34;;;;;;;29.25;20.20;;;;;;;4.36;74.51;100361.30;1737379;82;20997;-79
2021/11/25 08:07:02;;;;;;;27.02;18.70;;;;;;;4.33;74.52;100361.16;1717098;82;21249;-77
2021/11/25 08:09:29;;;;;;;27.22;21.77;;;;;;;4.32;74.47;100355.51;1737277;82;21002;-76
2021/11/25 08:11:55;;;;;;;31.37;21.60;;;;;;;4.29;74.50;100354.57;1717025;82;21506;-78
2021/11/25 08:14:23;;;;;;;30.50;22.98;;;;;;;4.27;74.66;100354.44;1716307;82;21541;-76
2021/11/25 08:16:49;;;;;;;42.03;28.87;;;;;;;4.26;74.75;100358.14;1737360;82;21497;-76
2021/11/25 08:19:17;;;;;;;31.90;22.75;;;;;;;4.28;74.86;100354.75;1737456;82;21098;-76
2021/11/25 08:21:44;;;;;;;30.17;22.85;;;;;;;4.29;74.86;100355.91;1743391;81;20965;-79
2021/11/25 08:24:11;;;;;;;31.17;23.77;;;;;;;4.31;74.79;100356.55;1715668;83;21074;-80
2021/11/25 08:26:39;;;;;;;34.48;23.22;;;;;;;4.31;74.77;100361.88;1729777;82;21005;-82
2021/11/25 08:29:06;;;;;;;28.90;20.75;;;;;;;4.32;74.70;100364.00;1711248;82;21046;-79
2021/11/25 08:31:33;;;;;;;26.23;18.07;;;;;;;4.36;74.61;100358.09;1717148;82;21086;-83
2021/11/25 08:34:00;;;;;;;32.75;22.32;;;;;;;4.37;74.48;100353.09;1737585;82;22213;-81
2021/11/25 08:36:27;;;;;;;31.17;20.70;;;;;;;4.41;74.38;100351.39;1737205;82;21554;-81
2021/11/25 08:38:54;;;;;;;34.18;23.80;;;;;;;4.43;74.30;100350.67;1715576;82;20946;-84
2021/11/25 08:41:22;;;;;;;33.28;22.52;;;;;;;4.46;74.20;100352.97;1737610;82;22138;-81
2021/11/25 08:43:49;;;;;;;34.70;22.17;;;;;;;4.41;74.21;100352.22;1745503;81;22453;-80
2021/11/25 08:46:16;;;;;;;33.92;22.37;;;;;;;4.39;74.31;100349.73;1712820;82;21064;-83
2021/11/25 08:48:43;;;;;;;27.02;19.35;;;;;;;4.43;74.34;100349.34;1727487;81;21456;-86
2021/11/25 08:51:11;;;;;;;32.55;21.35;;;;;;;4.44;74.31;100341.17;1724447;81;21217;-83
2021/11/25 08:53:38;;;;;;;28.90;21.10;;;;;;;4.47;74.39;100342.60;1735881;81;21483;-80
2021/11/25 08:56:11;;;;;;;28.30;22.50;;;;;;;4.50;74.19;100335.07;1749697;81;22119;-82
2021/11/25 08:58:38;;;;;;;;;;;;;;;4.47;74.24;100331.44;1740656;81;21507;-81
2021/11/25 09:01:05;;;;;;;31.30;24.18;;;;;;;4.48;74.24;100328.27;1759371;81;20153;-81
2021/11/25 09:03:32;;;;;;;28.65;20.97;;;;;;;4.41;74.42;100322.92;1714726;82;21038;-80
2021/11/25 09:05:59;;;;;;;30.32;19.12;;;;;;;4.37;74.51;100322.47;1714323;82;21022;-81
2021/11/25 09:08:26;;;;;;;30.50;21.97;;;;;;;4.37;74.62;100319.80;1713565;82;21535;-83
2021/11/25 09:10:54;;;;;;;28.70;20.25;;;;;;;4.37;74.60;100319.80;1710778;82;21057;-80
2021/11/25 09:13:21;;;;;;;36.90;24.20;;;;;;;4.41;74.59;100316.77;1667066;82;21076;-77
2021/11/25 09:15:50;;;;;;;26.62;19.35;;;;;;;4.45;74.50;100312.70;1758520;81;21018;-75
2021/11/25 09:18:18;;;;;;;26.35;20.90;;;;;;;4.52;74.42;100312.21;1738667;82;21527;-76
2021/11/25 09:20:45;;;;;;;28.25;21.82;;;;;;;4.55;74.31;100312.67;1742869;81;21200;-75
2021/11/25 09:23:15;;;;;;;33.30;23.22;;;;;;;4.54;74.28;100312.86;1713028;82;21101;-75
2021/11/25 09:25:43;;;;;;;29.60;21.33;;;;;;;4.56;74.29;100310.80;1713939;82;22231;-75
2021/11/25 09:28:14;;;;;;;30.20;21.50;;;;;;;4.61;74.15;100306.53;1714036;82;21029;-83
2021/11/25 09:30:42;;;;;;;32.15;23.25;;;;;;;4.63;74.03;100304.52;1713357;82;20981;-80
2021/11/25 09:33:10;;;;;;;29.42;24.20;;;;;;;4.62;73.83;100303.36;1683423;82;21094;-86
2021/11/25 09:35:39;;;;;;;30.65;19.98;;;;;;;4.63;73.89;100298.36;1741942;82;21025;-77
2021/11/25 09:38:09;;;;;;;29.42;23.60;;;;;;;4.63;73.81;100295.19;1739135;82;20919;-78
2021/11/25 09:40:36;;;;;;;35.63;21.60;;;;;;;4.61;73.88;100293.72;1740885;81;21142;-81
2021/11/25 09:43:07;;;;;;;25.72;19.77;;;;;;;4.66;73.90;100300.62;1742174;81;21066;-81
2021/11/25 09:45:37;;;;;;;36.42;21.82;;;;;;;4.73;73.77;100304.16;1689042;81;21075;-83
2021/11/25 09:48:07;;;;;;;28.12;21.50;;;;;;;4.77;73.49;100302.23;1744272;81;21029;-83
2021/11/25 09:50:37;;;;;;;30.82;23.52;;;;;;;4.77;73.23;100293.41;1736378;81;20963;-83
2021/11/25 09:53:08;;;;;;;32.98;24.90;;;;;;;4.79;73.26;100293.55;1740067;81;21034;-85
2021/11/25 09:55:35;;;;;;;29.60;24.12;;;;;;;4.77;72.99;100297.41;1712946;82;21071;-86
2021/11/25 09:58:02;;;;;;;31.73;24.18;;;;;;;4.76;73.10;100292.58;1712585;82;23203;-81
2021/11/25 10:00:31;;;;;;;25.45;20.32;;;;;;;4.80;72.98;100301.00;1741483;81;21495;-80
2021/11/25 10:02:59;;;;;;;24.27;20.85;;;;;;;4.83;72.83;100281.47;1754050;81;21096;-79
2021/11/25 10:05:26;;;;;;;25.12;21.12;;;;;;;4.84;72.82;100279.09;1756310;81;21001;-78
2021/11/25 10:07:53;;;;;;;28.07;20.10;;;;;;;4.89;72.57;100285.69;1726811;81;21037;-78
2021/11/25 10:10:30;;;;;;;29.75;22.75;;;;;;;4.93;72.49;100277.61;1709845;82;21733;-83
2021/11/25 10:13:13;;;;;;;35.48;23.42;;;;;;;4.93;72.37;100280.27;1709383;84;21037;-85
2021/11/25 10:15:41;;;;;;;36.85;23.95;;;;;;;4.90;72.14;100268.66;1717570;81;20935;-80
2021/11/25 10:18:15;;;;;;;33.08;22.65;;;;;;;4.95;72.27;100270.22;1715413;81;21136;-76
2021/11/25 10:20:51;;;;;;;31.12;22.30;;;;;;;5.01;71.98;100260.09;1707980;81;21070;-76
2021/11/25 10:23:22;;;;;;;27.98;20.97;;;;;;;5.07;71.86;100260.13;1727209;81;21020;-77
2021/11/25 10:25:58;;;;;;;29.23;23.12;;;;;;;5.14;71.65;100266.29;1743081;81;21037;-78
2021/11/25 10:28:36;;;;;;;29.75;22.70;;;;;;;5.17;71.34;100256.58;1713092;82;21661;-77
2021/11/25 10:31:31;;;;;;;33.58;24.23;;;;;;;5.22;71.13;100250.13;1738729;82;21077;-80
2021/11/25 10:34:05;;;;;;;27.10;23.07;;;;;;;5.24;70.79;100249.40;1732119;81;20994;-76
2021/11/25 10:39:36;;;;;;;29.40;24.25;;;;;;;5.21;70.56;100236.98;1701030;82;21007;-78
2021/11/25 10:42:00;;;;;;;35.30;24.92;;;;;;;5.20;70.80;100229.50;1751071;81;20906;-78
2021/11/25 10:44:34;;;;;;;24.25;20.88;;;;;;;5.23;70.62;100226.92;1746674;81;21431;-79
2021/11/25 10:47:15;;;;;;;28.25;21.12;;;;;;;5.24;70.98;100224.58;1722241;81;21044;-74
2021/11/25 10:49:49;;;;;;;25.77;19.98;;;;;;;5.26;70.63;100223.37;1746570;81;22300;-77
2021/11/25 10:52:31;;;;;;;27.60;19.32;;;;;;;5.24;71.15;100220.06;1714394;81;21005;-76
2021/11/25 10:55:07;;;;;;;26.80;21.65;;;;;;;5.26;70.78;100211.37;1744218;81;21535;-75
2021/11/25 10:57:45;;;;;;;33.78;22.35;;;;;;;5.24;70.83;100204.06;1716494;81;21062;-75
2021/11/25 11:00:25;;;;;;;29.12;21.40;;;;;;;5.21;70.49;100196.99;1676596;84;20984;-77
2021/11/25 11:03:19;;;;;;;23.55;17.17;;;;;;;5.17;70.78;100193.92;1720874;82;21795;-76
2021/11/25 11:05:56;;;;;;;23.12;17.95;;;;;;;5.22;70.74;100197.31;1738931;81;21030;-76
2021/11/25 11:08:28;;;;;;;27.55;19.40;;;;;;;5.27;70.64;100190.31;1749742;81;20930;-75
2021/11/25 11:10:58;;;;;;;24.15;18.62;;;;;;;5.32;70.36;100191.58;1724473;81;21066;-77
2021/11/25 11:18:56;;;;;;;22.10;17.30;;;;;;;5.53;70.17;100178.03;1709516;82;21069;-82
2021/11/25 11:21:42;;;;;;;26.65;17.75;;;;;;;5.58;70.00;100175.06;1684853;84;21105;-80
2021/11/25 11:24:30;;;;;;;24.05;17.23;;;;;;;5.61;69.31;100167.97;1709794;81;21065;-75
2021/11/25 11:27:05;;;;;;;24.30;17.55;;;;;;;5.56;68.93;100163.77;1722983;81;21046;-73
2021/11/25 11:29:32;;;;;;;24.67;17.92;;;;;;;5.46;69.11;100160.71;1697202;84;21120;-78
2021/11/25 11:32:03;;;;;;;22.98;17.98;;;;;;;5.40;69.18;100157.52;1742972;81;20920;-77
2021/11/25 11:34:32;;;;;;;23.25;17.35;;;;;;;5.39;69.21;100161.20;1759905;81;21001;-80
2021/11/25 11:36:59;;;;;;;25.97;18.82;;;;;;;5.35;69.14;100149.31;1743018;81;21584;-76